Flight Track Log - Related Links

Times and Time Zones

All times are in EST time to prevent confusion due to time zone crossing. See the SWA1618 flight status page for this flight to view local times or setup timezone preferences in your user account.

Time Position Orientation Groundspeed Altitude Reporting Facility
EST Latitude Longitude Course Direction KTS MPH feet Rate Location/Type
Sun 12:15:25 AM 41.7667 -87.7667 143° Southeast 158 182 2,600  Level Chicago TRACON
Sun 12:15:44 AM 41.7500 -87.7500 143° Southeast 203 234 2,900 1,729 Climbing Chicago TRACON
Sun 12:16:24 AM 41.7528 -87.6972 86° East 285 328 4,300 2,792 Climbing Chicago Center
Sun 12:17:25 AM 41.7592 -87.5881 85° East 294 338 7,600 3,669 Climbing Chicago Center
Sun 12:18:25 AM 41.7622 -87.4692 88° East 314 361 11,700 3,500 Climbing Chicago Center
Sun 12:19:25 AM 41.7658 -87.3378 88° East 348 400 14,600 2,926 Climbing Chicago Center
Sun 12:20:26 AM 41.7628 -87.1969 92° East 373 429 17,600 2,975 Climbing Chicago Center
Sun 12:21:26 AM 41.7619 -87.0497 90° East 391 450 20,600 2,750 Climbing Chicago Center
Sun 12:22:26 AM 41.7628 -86.8961 90° East 409 471 23,100 2,182 Climbing Chicago Center
Sun 12:23:27 AM 41.7661 -86.7392 88° East 418 481 25,000 1,884 Climbing Chicago Center
Sun 12:24:27 AM 41.7664 -86.5564 90° East 456 525 26,900 1,600 Climbing Chicago Center
Sun 12:25:27 AM 41.7678 -86.3758 89° East 480 552 28,200 1,289 Climbing Chicago Center
Sun 12:26:28 AM 41.7894 -86.1867 81° East 512 589 29,500 1,388 Climbing Chicago Center
Sun 12:27:28 AM 41.8244 -85.9908 76° East 534 615 31,000 750 Climbing Chicago Center
Sun 12:28:28 AM 41.8581 -85.7911 77° East 544 626 31,000  Level Chicago Center
Sun 12:29:28 AM 41.8928 -85.5903 77° East 546 628 31,000  Level Chicago Center
Sun 12:30:29 AM 41.9250 -85.3906 78° East 542 624 31,000  Level Chicago Center
Sun 12:31:29 AM 41.9517 -85.1911 80° East 538 619 31,000  Level Chicago Center
Sun 12:32:29 AM 41.9511 -84.9958 90° East 522 601 31,000  Level Chicago Center
Sun 12:33:30 AM 41.9494 -84.8008 91° East 522 601 31,000  Level Chicago Center
Sun 12:34:30 AM 41.9486 -84.6081 90° East 518 596 31,000  Level Chicago Center
Sun 12:35:30 AM 41.9794 -84.4075 78° East 532 612 31,000  Level Chicago Center
Sun 12:36:30 AM 42.0189 -84.2167 74° East 534 615 31,000  Level Chicago Center
Sun 12:37:31 AM 42.0583 -84.0244 74° East 535 616 31,000  Level Chicago Center
Sun 12:38:31 AM 42.0975 -83.8322 75° East 535 616 31,000  Level Chicago Center
Sun 12:39:38 AM 42.1414 -83.6078 75° East 539 620 31,000  Level Cleveland Center
Sun 12:40:38 AM 42.1744 -83.4347 75° East 537 618 31,000  Level Cleveland Center
Sun 12:41:38 AM 42.2131 -83.2361 75° East 541 623 31,000 -545 Level Cleveland Center
Sun 12:42:39 AM 42.2514 -83.0394 75° East 532 612 29,900 -1,240 Descending Cleveland Center
Sun 12:43:39 AM 42.2869 -82.8539 75° East 517 595 28,500 -1,500 Descending Cleveland Center
Sun 12:44:39 AM 42.3203 -82.6733 76° East 502 578 26,900 -1,650 Descending Cleveland Center
Sun 12:45:39 AM 42.3547 -82.4928 75° East 498 573 25,200 -1,450 Descending Cleveland Center
Sun 12:46:39 AM 42.3878 -82.3133 76° East 495 570 24,000 -595 Descending Cleveland Center
Sun 12:47:40 AM 42.4225 -82.1233 76° East 492 566 24,000  Level Cleveland Center
Sun 12:48:40 AM 42.4547 -81.9419 76° East 490 564 24,000  Level Cleveland Center
Sun 12:49:40 AM 42.4886 -81.7611 76° East 490 564 24,000  Level Cleveland Center
Sun 12:50:40 AM 42.5208 -81.5761 77° East 497 572 24,000  Level Cleveland Center
Sun 12:51:40 AM 42.5531 -81.3925 77° East 496 571 24,000  Level Cleveland Center
Sun 12:52:41 AM 42.5847 -81.2119 77° East 489 563 24,000  Level Cleveland Center
Sun 12:53:41 AM 42.6167 -81.0303 77° East 489 563 24,000  Level Cleveland Center
Sun 12:54:41 AM 42.6428 -80.8797 77° East 488 562 24,000  Level Cleveland Center
Sun 12:55:41 AM 42.6739 -80.6978 77° East 489 563 24,000  Level Cleveland Center
Sun 12:56:41 AM 42.7064 -80.5156 76° East 493 567 24,000  Level Cleveland Center
Sun 12:57:42 AM 42.7364 -80.3297 78° East 498 573 24,000  Level Cleveland Center
Sun 12:58:42 AM 42.7661 -80.1503 77° East 483 556 24,000 -950 Level Cleveland Center
Sun 12:59:42 AM 42.7958 -79.9653 78° East 459 528 22,100 -2,700 Descending Cleveland Center
Sun 01:00:42 AM 42.8217 -79.8089 77° East 469 540 18,600 -3,250 Descending Cleveland Center
Sun 01:01:42 AM 42.8178 -79.6422 92° East 438 504 15,600 -3,000 Descending Cleveland Center
Sun 01:02:42 AM 42.8372 -79.4839 80° East 424 488 12,600 -2,777 Descending Cleveland Center
Sun 01:03:43 AM 42.8689 -79.3200 75° East 406 467 10,000 -1,983 Descending Cleveland Center
Sun 01:04:43 AM 42.8958 -79.1869 75° East 352 405 8,600 -1,405 Descending Cleveland Center
Sun 01:05:34 AM 42.9167 -79.0833 75° East 306 352 7,400 -1,459 Descending Buffalo TRACON
Sun 01:06:34 AM 42.9333 -78.9833 77° East 299 344 5,900 -1,650 Descending Buffalo TRACON
Sun 01:07:34 AM 42.9500 -78.8667 79° East 297 342 4,100 -933 Descending Buffalo TRACON
Sun 01:09:34 AM 43.0167 -78.7167 59° Northeast 197 227 3,100 -667 Descending Buffalo TRACON
Sun 01:10:34 AM 43.0167 -78.6667 90° East 156 180 2,100 -800 Descending Buffalo TRACON
Sun 01:11:34 AM 42.9833 -78.6833 200° South 98 113 1,500 -550 Descending Buffalo TRACON
Sun 01:12:34 AM 42.9500 -78.7000 200° South 105 121 1,000 -500 Descending Buffalo TRACON

Login

Don't have an account? Register now (free) for customized features, flight alerts, and more!